Time;durP1;ratioP1;P1;durP2;ratioP2;P2;SDS_P1;SDS_P2;PMS_P1;PMS_P2;Temp;Humidity;BMP_temperature;BMP_pressure;BME280_temperature;BME280_humidity;BME280_pressure;Samples;Min_cycle;Max_cycle;Signal;HPM_P1;HPM_P2
2022/06/10 00:01:54;;;;;;;16.90;4.90;;;17.10;92.70;;;;;;5095977;28;20476;-71
2022/06/10 00:04:21;;;;;;;14.17;4.13;;;17.10;92.80;;;;;;5096381;28;20543;-71
2022/06/10 00:06:48;;;;;;;16.50;5.07;;;17.10;92.90;;;;;;5096329;28;20446;-71
2022/06/10 00:09:14;;;;;;;16.20;4.90;;;17.10;92.90;;;;;;5095917;28;20450;-72
2022/06/10 00:11:42;;;;;;;12.80;4.30;;;17.10;92.90;;;;;;5096635;28;20471;-72
2022/06/10 00:14:09;;;;;;;12.00;4.43;;;17.10;93.30;;;;;;5096162;28;20450;-72
2022/06/10 00:16:37;;;;;;;14.50;4.53;;;17.00;93.00;;;;;;5096061;28;20447;-72
2022/06/10 00:19:04;;;;;;;9.20;4.57;;;17.00;93.20;;;;;;5095980;28;20440;-72
2022/06/10 00:21:31;;;;;;;8.23;4.27;;;16.90;93.40;;;;;;5096024;28;20478;-72
2022/06/10 00:23:58;;;;;;;10.93;4.40;;;16.90;93.50;;;;;;5096220;28;20481;-72
2022/06/10 00:26:24;;;;;;;12.17;5.13;;;16.90;93.50;;;;;;5095528;28;20889;-72
2022/06/10 00:28:53;;;;;;;10.23;5.10;;;16.90;93.70;;;;;;5095786;28;20443;-72
2022/06/10 00:31:19;;;;;;;7.37;4.17;;;16.90;93.90;;;;;;5096940;28;20471;-72
2022/06/10 00:33:46;;;;;;;8.07;3.97;;;16.80;93.80;;;;;;5097552;28;20459;-72
2022/06/10 00:36:15;;;;;;;13.80;6.13;;;16.80;94.10;;;;;;5098942;28;20995;-72
2022/06/10 00:38:42;;;;;;;11.23;4.47;;;16.70;94.20;;;;;;5095452;28;20455;-72
2022/06/10 00:41:09;;;;;;;12.40;5.90;;;16.70;94.30;;;;;;5095100;28;20972;-72
2022/06/10 00:43:37;;;;;;;12.40;5.80;;;16.60;94.30;;;;;;5095326;28;20455;-72
2022/06/10 00:46:23;;;;;;;8.20;4.63;;;16.60;94.40;;;;;;5095356;28;20424;-72
2022/06/10 00:48:54;;;;;;;14.50;5.87;;;16.50;94.50;;;;;;5094988;28;20851;-72
2022/06/10 00:51:27;;;;;;;9.53;4.10;;;16.50;94.80;;;;;;5095177;28;20479;-72
2022/06/10 00:53:57;;;;;;;8.50;4.47;;;16.50;94.80;;;;;;5094816;28;20799;-72
2022/06/10 00:56:26;;;;;;;12.50;4.67;;;16.40;94.90;;;;;;5095074;28;20468;-72
2022/06/10 00:58:58;;;;;;;13.50;4.87;;;16.40;94.90;;;;;;5095003;28;20473;-72
2022/06/10 01:01:29;;;;;;;9.07;4.20;;;16.40;94.80;;;;;;5094903;28;20472;-72
2022/06/10 01:03:56;;;;;;;9.20;4.67;;;16.40;94.80;;;;;;5094909;28;20439;-72
2022/06/10 01:06:23;;;;;;;7.03;3.83;;;16.50;94.70;;;;;;5094809;28;20444;-72
2022/06/10 01:08:52;;;;;;;9.93;4.10;;;16.50;94.70;;;;;;5094540;28;20447;-72
2022/06/10 01:11:38;;;;;;;8.37;4.10;;;16.50;94.50;;;;;;5094748;28;20472;-72
2022/06/10 01:14:15;;;;;;;14.83;4.30;;;16.50;94.50;;;;;;5094436;28;20796;-72
2022/06/10 01:16:51;;;;;;;6.00;4.07;;;16.50;94.20;;;;;;5094726;28;20471;-72
2022/06/10 01:19:46;;;;;;;9.20;4.43;;;16.50;94.30;;;;;;5094689;28;20427;-72
2022/06/10 01:22:38;;;;;;;8.47;3.63;;;16.60;94.40;;;;;;5094212;28;20839;-72
2022/06/10 01:25:29;;;;;;;12.57;4.13;;;16.60;94.50;;;;;;5094665;28;20427;-72
2022/06/10 01:28:05;;;;;;;7.07;4.07;;;16.60;94.40;;;;;;5093765;28;20897;-72
2022/06/10 01:31:12;;;;;;;8.77;3.77;;;16.60;94.20;;;;;;5094364;28;20435;-72
2022/06/10 01:33:51;;;;;;;6.70;3.47;;;16.60;94.00;;;;;;5094235;28;20455;-72
2022/06/10 01:36:24;;;;;;;7.20;3.70;;;16.50;93.80;;;;;;5094419;28;20474;-72
2022/06/10 01:38:59;;;;;;;7.20;3.50;;;16.50;93.70;;;;;;5094354;28;20428;-72
2022/06/10 01:41:34;;;;;;;10.90;4.13;;;16.50;93.70;;;;;;5094529;28;20467;-72
2022/06/10 01:44:12;;;;;;;7.10;3.50;;;16.50;93.70;;;;;;5094481;28;20424;-72
2022/06/10 01:46:49;;;;;;;6.03;3.50;;;16.50;93.70;;;;;;5094213;28;20421;-72
2022/06/10 01:49:21;;;;;;;6.73;4.80;;;16.50;93.80;;;;;;5094228;28;20483;-72
2022/06/10 01:51:57;;;;;;;6.80;3.90;;;16.50;93.80;;;;;;5094055;28;20478;-72
2022/06/10 01:54:31;;;;;;;9.50;3.70;;;16.50;93.70;;;;;;5094088;28;20485;-72
2022/06/10 01:57:01;;;;;;;8.03;3.40;;;16.40;93.90;;;;;;5094217;28;20490;-72
2022/06/10 01:59:30;;;;;;;7.10;3.33;;;16.40;93.40;;;;;;5094046;28;20435;-72
2022/06/10 02:02:04;;;;;;;6.47;3.90;;;16.40;93.30;;;;;;5094132;28;20460;-72
2022/06/10 02:04:36;;;;;;;7.10;2.80;;;16.40;93.20;;;;;;5093968;28;20428;-72
2022/06/10 02:07:06;;;;;;;5.47;3.70;;;16.40;93.10;;;;;;5093952;28;20431;-72
2022/06/10 02:09:37;;;;;;;7.53;3.20;;;16.30;93.00;;;;;;5094052;28;20776;-72
2022/06/10 02:12:10;;;;;;;8.40;4.30;;;16.30;93.00;;;;;;5093655;28;20463;-72
2022/06/10 02:14:41;;;;;;;5.67;3.00;;;16.30;93.00;;;;;;5093850;28;20526;-72
2022/06/10 02:17:13;;;;;;;6.73;3.63;;;16.20;92.90;;;;;;5093792;28;20515;-72
2022/06/10 02:19:45;;;;;;;6.43;4.03;;;16.20;92.90;;;;;;5093762;28;20454;-72
2022/06/10 02:22:16;;;;;;;3.00;2.53;;;16.20;93.00;;;;;;5093633;28;20474;-72
2022/06/10 02:24:47;;;;;;;5.00;3.37;;;16.10;93.10;;;;;;5093727;28;20432;-72
2022/06/10 02:27:17;;;;;;;5.00;3.57;;;16.10;93.20;;;;;;5093376;28;20960;-72
2022/06/10 02:29:52;;;;;;;4.17;3.20;;;16.10;93.30;;;;;;5093664;28;20448;-72
2022/06/10 02:32:20;;;;;;;14.10;3.70;;;16.10;93.50;;;;;;5093668;28;20459;-72
2022/06/10 02:34:48;;;;;;;7.20;3.40;;;16.20;93.80;;;;;;5092602;28;20455;-72
2022/06/10 02:37:20;;;;;;;8.47;3.80;;;16.20;93.90;;;;;;5092767;28;20439;-72
2022/06/10 02:39:55;;;;;;;6.97;3.57;;;16.10;93.80;;;;;;5092519;28;20893;-72
2022/06/10 02:42:28;;;;;;;8.60;4.13;;;16.10;94.00;;;;;;5096345;28;20467;-72
2022/06/10 02:45:00;;;;;;;11.20;4.30;;;16.10;94.10;;;;;;5096328;28;20435;-72
2022/06/10 02:47:40;;;;;;;10.83;4.87;;;16.10;94.20;;;;;;5096271;28;20435;-72
2022/06/10 02:50:09;;;;;;;4.63;3.40;;;16.00;94.40;;;;;;5096278;28;20439;-72
2022/06/10 02:52:37;;;;;;;5.47;4.00;;;16.00;94.40;;;;;;5096220;28;20468;-72
2022/06/10 02:55:06;;;;;;;6.53;3.37;;;16.00;94.50;;;;;;5096206;28;20454;-72
2022/06/10 03:03:10;;;;;;;8.77;3.83;;;15.80;93.70;;;;;;5095864;28;20808;-72
2022/06/10 03:05:45;;;;;;;7.43;3.50;;;15.80;93.50;;;;;;5096119;28;20422;-72
2022/06/10 03:08:25;;;;;;;6.67;3.63;;;15.70;93.40;;;;;;5096180;28;20899;-72
2022/06/10 03:11:04;;;;;;;4.57;3.23;;;15.70;93.30;;;;;;5097570;28;20466;-72
2022/06/10 03:13:44;;;;;;;3.50;2.53;;;15.70;93.30;;;;;;5099431;28;20427;-72
2022/06/10 03:16:28;;;;;;;4.40;2.83;;;15.70;93.40;;;;;;5095776;28;20467;-72
2022/06/10 03:19:05;;;;;;;7.77;3.30;;;15.60;93.20;;;;;;5095809;28;20432;-72
2022/06/10 03:21:41;;;;;;;5.83;3.30;;;15.60;93.20;;;;;;5095702;28;20467;-72
2022/06/10 03:24:11;;;;;;;7.60;3.73;;;15.60;93.20;;;;;;5095784;28;20481;-72
2022/06/10 03:26:45;;;;;;;8.43;3.77;;;15.60;93.30;;;;;;5095657;28;20420;-72
2022/06/10 03:29:18;;;;;;;6.33;3.50;;;15.60;93.40;;;;;;5095550;28;20428;-72
2022/06/10 03:31:50;;;;;;;8.80;3.40;;;15.60;93.40;;;;;;5095698;28;20467;-72
2022/06/10 03:34:24;;;;;;;11.07;4.03;;;15.50;93.40;;;;;;5058333;28;1066690;-72
2022/06/10 03:36:53;;;;;;;13.03;3.90;;;15.60;93.70;;;;;;5097306;28;20201;-72
2022/06/10 03:39:21;;;;;;;9.23;3.87;;;15.60;94.30;;;;;;5096592;28;20454;-72
2022/06/10 03:41:58;;;;;;;8.97;3.40;;;15.60;94.80;;;;;;5096115;28;20830;-72
2022/06/10 03:44:27;;;;;;;7.77;3.80;;;15.60;95.00;;;;;;5096584;28;20435;-72
2022/06/10 03:46:56;;;;;;;5.57;3.87;;;15.60;95.20;;;;;;5096528;28;20440;-72
2022/06/10 03:49:29;;;;;;;7.13;3.57;;;15.60;95.40;;;;;;5096463;28;20464;-72
2022/06/10 03:51:56;;;;;;;8.83;4.03;;;15.70;95.50;;;;;;5095902;28;20464;-72
2022/06/10 03:54:23;;;;;;;6.80;3.73;;;15.70;95.40;;;;;;5096330;28;20444;-72
2022/06/10 03:56:51;;;;;;;10.50;3.40;;;15.80;95.40;;;;;;5096275;28;20479;-72
2022/06/10 03:59:18;;;;;;;12.70;4.17;;;15.90;95.60;;;;;;5096298;28;20447;-72
2022/06/10 04:01:45;;;;;;;6.43;3.80;;;15.90;95.70;;;;;;5096205;28;20472;-72
2022/06/10 04:04:12;;;;;;;12.77;4.40;;;15.90;95.60;;;;;;5096242;28;20428;-71
2022/06/10 04:06:40;;;;;;;20.13;4.47;;;15.90;95.60;;;;;;5096897;28;20458;-71
2022/06/10 04:09:07;;;;;;;8.33;3.60;;;15.90;95.60;;;;;;5096035;28;20802;-71
2022/06/10 04:11:34;;;;;;;9.07;3.70;;;16.00;95.70;;;;;;5096193;28;20479;-72
2022/06/10 04:14:01;;;;;;;11.70;4.20;;;16.00;95.80;;;;;;5096119;28;20452;-72
2022/06/10 04:16:28;;;;;;;10.40;3.80;;;16.00;95.90;;;;;;5096002;28;20483;-72
2022/06/10 04:18:56;;;;;;;7.47;3.40;;;16.00;95.70;;;;;;5095934;28;20963;-72
2022/06/10 04:21:22;;;;;;;11.97;3.47;;;16.00;95.70;;;;;;5095935;28;20550;-72
2022/06/10 04:23:51;;;;;;;7.10;3.10;;;16.00;95.80;;;;;;5095776;28;20440;-71
2022/06/10 04:26:17;;;;;;;9.63;3.90;;;16.00;96.00;;;;;;5095818;28;20447;-71
2022/06/10 04:28:44;;;;;;;9.50;3.37;;;16.10;96.10;;;;;;5095664;28;20451;-71
2022/06/10 04:31:11;;;;;;;9.97;3.40;;;16.10;96.10;;;;;;5095569;28;20483;-71
2022/06/10 04:33:38;;;;;;;11.00;3.97;;;16.20;96.10;;;;;;5095484;28;20459;-72
2022/06/10 04:36:05;;;;;;;9.43;4.40;;;16.20;96.10;;;;;;5096055;28;20483;-71
2022/06/10 04:38:33;;;;;;;10.43;3.97;;;16.20;96.30;;;;;;5095524;28;20497;-72
2022/06/10 04:41:05;;;;;;;7.87;3.20;;;16.30;96.50;;;;;;5095391;28;20514;-72
2022/06/10 04:43:32;;;;;;;12.43;3.80;;;16.40;96.70;;;;;;5095447;28;20535;-72
2022/06/10 04:45:58;;;;;;;8.90;3.00;;;16.40;96.10;;;;;;5095384;28;20435;-72
2022/06/10 04:48:25;;;;;;;10.97;3.40;;;16.50;95.90;;;;;;5095330;28;20451;-72
2022/06/10 04:50:52;;;;;;;12.83;3.77;;;16.50;95.50;;;;;;5094818;28;20833;-72
2022/06/10 04:53:19;;;;;;;8.77;3.60;;;16.50;95.50;;;;;;5095368;28;20420;-72
2022/06/10 04:55:46;;;;;;;9.07;3.53;;;16.60;95.50;;;;;;5094585;28;21071;-70
2022/06/10 04:58:16;;;;;;;9.80;3.37;;;16.60;95.20;;;;;;5095016;28;20440;-70
2022/06/10 05:00:45;;;;;;;10.13;3.40;;;16.60;95.00;;;;;;5094977;28;20464;-70
2022/06/10 05:03:12;;;;;;;13.63;3.20;;;16.60;95.10;;;;;;5094183;28;20450;-70
2022/06/10 05:05:40;;;;;;;7.97;2.83;;;16.60;95.20;;;;;;5094926;28;20555;-70
2022/06/10 05:08:08;;;;;;;6.50;2.80;;;16.60;94.90;;;;;;5094914;28;20448;-70
2022/06/10 05:10:35;;;;;;;9.07;3.63;;;16.60;94.80;;;;;;5094832;28;20463;-70
2022/06/10 05:13:02;;;;;;;9.97;3.37;;;16.70;94.80;;;;;;5094830;28;20444;-70
2022/06/10 05:15:30;;;;;;;7.80;2.90;;;16.70;94.90;;;;;;5094750;28;20450;-70
2022/06/10 05:17:59;;;;;;;10.40;3.23;;;16.70;94.80;;;;;;5094690;28;20479;-70
2022/06/10 05:20:28;;;;;;;12.53;2.80;;;16.70;94.60;;;;;;5094635;28;20517;-71
2022/06/10 05:22:54;;;;;;;12.00;2.57;;;16.80;94.70;;;;;;5094570;28;20435;-70
2022/06/10 05:25:21;;;;;;;12.67;3.17;;;16.80;94.60;;;;;;5094609;28;20450;-70
2022/06/10 05:27:48;;;;;;;5.93;2.50;;;16.80;94.60;;;;;;5094252;28;20937;-70
2022/06/10 05:30:23;;;;;;;7.27;2.53;;;16.80;94.60;;;;;;5094575;28;20454;-71
2022/06/10 05:32:51;;;;;;;4.87;2.47;;;16.90;94.60;;;;;;5094585;28;20424;-70
2022/06/10 05:35:19;;;;;;;9.93;2.70;;;17.00;94.50;;;;;;5093957;28;20444;-70
2022/06/10 05:37:46;;;;;;;10.30;2.47;;;17.10;94.30;;;;;;5094328;28;20495;-70
2022/06/10 05:40:15;;;;;;;6.80;2.60;;;17.10;94.30;;;;;;5094359;28;20538;-70
2022/06/10 05:42:43;;;;;;;7.33;2.20;;;17.20;94.40;;;;;;5094634;28;20444;-70
2022/06/10 05:45:11;;;;;;;8.17;3.00;;;17.30;93.90;;;;;;5095038;28;20448;-70
2022/06/10 05:47:38;;;;;;;9.57;2.60;;;17.30;93.50;;;;;;5095412;28;20436;-70
2022/06/10 05:50:12;;;;;;;7.20;2.73;;;17.40;93.20;;;;;;5097525;28;20439;-70
2022/06/10 05:52:39;;;;;;;18.27;3.90;;;17.40;92.90;;;;;;5094112;28;20474;-70
2022/06/10 05:55:08;;;;;;;6.23;2.37;;;17.50;92.60;;;;;;5094113;28;20519;-70
2022/06/10 05:57:35;;;;;;;7.57;3.27;;;17.60;92.90;;;;;;5093567;28;20992;-70
2022/06/10 06:00:02;;;;;;;8.17;2.40;;;17.60;92.50;;;;;;5094089;28;20444;-70
2022/06/10 06:02:29;;;;;;;18.17;2.30;;;17.70;92.20;;;;;;5093914;28;20463;-70
2022/06/10 06:04:58;;;;;;;4.57;2.00;;;17.80;92.20;;;;;;5093935;28;20784;-70
2022/06/10 06:07:28;;;;;;;5.90;2.40;;;17.90;92.10;;;;;;5093828;28;20444;-70
2022/06/10 06:09:56;;;;;;;9.27;2.73;;;17.80;91.90;;;;;;5093872;28;20432;-70
2022/06/10 06:12:24;;;;;;;5.47;2.67;;;17.90;91.80;;;;;;5093804;28;20467;-70
2022/06/10 06:14:50;;;;;;;8.00;2.47;;;17.90;91.90;;;;;;5093686;28;20447;-70
2022/06/10 06:17:19;;;;;;;5.57;2.10;;;18.00;91.90;;;;;;5093422;28;21004;-70
2022/06/10 06:19:46;;;;;;;15.70;2.53;;;18.00;91.80;;;;;;5093380;28;20455;-70
2022/06/10 06:22:13;;;;;;;8.23;2.70;;;18.10;91.80;;;;;;5093638;28;20459;-70
2022/06/10 06:24:41;;;;;;;6.70;2.53;;;18.20;91.60;;;;;;5093414;28;20791;-70
2022/06/10 06:27:12;;;;;;;5.50;2.20;;;18.30;91.60;;;;;;5093599;28;20439;-70
2022/06/10 06:29:38;;;;;;;8.93;2.57;;;18.30;91.30;;;;;;5093625;28;20427;-70
2022/06/10 06:32:06;;;;;;;5.33;2.37;;;18.40;90.80;;;;;;5093303;28;20468;-73
2022/06/10 06:34:33;;;;;;;8.40;3.70;;;18.40;90.70;;;;;;5093359;28;20467;-73
2022/06/10 06:37:00;;;;;;;11.97;2.80;;;18.50;90.50;;;;;;5093437;28;20483;-74
2022/06/10 06:39:27;;;;;;;6.73;2.10;;;18.50;90.50;;;;;;5093293;28;20975;-74
2022/06/10 06:41:56;;;;;;;9.93;2.70;;;18.60;90.50;;;;;;5093424;28;20482;-73
2022/06/10 06:44:23;;;;;;;7.33;2.37;;;18.60;90.40;;;;;;5093574;28;20443;-74
2022/06/10 06:46:50;;;;;;;8.80;2.97;;;18.60;90.40;;;;;;5093172;28;20951;-74
2022/06/10 06:49:19;;;;;;;5.73;2.60;;;18.70;90.40;;;;;;5093477;28;20455;-74
2022/06/10 06:51:46;;;;;;;6.80;2.23;;;18.90;90.40;;;;;;5093700;28;20521;-73
2022/06/10 06:54:13;;;;;;;12.90;2.97;;;19.00;90.20;;;;;;5093658;28;20447;-73
2022/06/10 06:56:39;;;;;;;9.03;2.20;;;19.20;89.90;;;;;;5093324;28;20980;-73
2022/06/10 06:59:08;;;;;;;7.93;2.10;;;19.40;88.40;;;;;;5093110;28;20443;-72
2022/06/10 07:01:35;;;;;;;4.40;1.93;;;19.50;88.40;;;;;;5093288;28;20976;-72
2022/06/10 07:04:03;;;;;;;10.63;2.60;;;19.70;88.60;;;;;;5093404;28;20480;-72
2022/06/10 07:06:30;;;;;;;6.67;1.93;;;20.00;87.70;;;;;;5093544;28;20440;-72
2022/06/10 07:08:57;;;;;;;6.77;1.83;;;20.20;86.80;;;;;;5093393;28;20820;-72
2022/06/10 07:11:24;;;;;;;6.33;2.30;;;20.40;84.80;;;;;;5093366;28;20470;-72
2022/06/10 07:13:51;;;;;;;5.60;2.00;;;20.70;83.00;;;;;;5093222;28;20447;-72
2022/06/10 07:16:19;;;;;;;4.23;1.83;;;20.90;83.50;;;;;;5093095;28;20450;-72
2022/06/10 07:18:46;;;;;;;4.30;2.03;;;20.90;83.10;;;;;;5092789;28;20971;-72
2022/06/10 07:21:12;;;;;;;4.83;2.00;;;21.10;82.60;;;;;;5093074;28;20475;-72
2022/06/10 07:23:39;;;;;;;5.93;2.20;;;21.30;82.20;;;;;;5093152;28;20447;-72
2022/06/10 07:26:06;;;;;;;9.93;2.13;;;21.50;80.60;;;;;;5093477;28;20454;-72
2022/06/10 07:28:33;;;;;;;6.13;1.77;;;21.60;80.00;;;;;;5096822;28;20530;-72
2022/06/10 07:30:59;;;;;;;5.27;1.87;;;21.80;77.80;;;;;;5096451;28;20479;-72
2022/06/10 07:33:28;;;;;;;7.27;1.90;;;21.80;76.90;;;;;;5096285;28;20450;-72
2022/06/10 07:35:55;;;;;;;11.17;1.90;;;21.90;76.90;;;;;;5096403;28;20801;-73
2022/06/10 07:38:23;;;;;;;10.23;2.50;;;21.90;74.70;;;;;;5096641;28;20482;-73
2022/06/10 07:43:35;;;;;;;5.20;2.03;;;21.90;72.30;;;;;;5096563;28;20411;-73
2022/06/10 07:46:03;;;;;;;8.10;2.17;;;21.90;72.50;;;;;;5096514;28;20495;-73
2022/06/10 07:48:32;;;;;;;5.87;1.50;;;21.90;72.50;;;;;;5096165;28;20879;-73
2022/06/10 07:50:59;;;;;;;6.13;1.50;;;21.80;74.30;;;;;;5096107;28;20460;-73
2022/06/10 07:53:29;;;;;;;8.27;1.60;;;21.90;73.40;;;;;;5096479;28;20432;-73
2022/06/10 07:55:56;;;;;;;5.23;1.73;;;21.90;73.60;;;;;;5096406;28;20447;-73
2022/06/10 07:58:24;;;;;;;3.07;1.43;;;22.00;73.30;;;;;;5095889;28;20482;-73
2022/06/10 08:00:52;;;;;;;5.53;1.80;;;22.10;73.00;;;;;;5096458;28;20471;-73
2022/06/10 08:03:19;;;;;;;5.53;1.87;;;22.20;71.70;;;;;;5095928;28;20448;-73
2022/06/10 08:05:47;;;;;;;6.77;1.70;;;22.30;72.40;;;;;;5096567;28;20452;-72
2022/06/10 08:08:17;;;;;;;5.80;1.90;;;22.40;72.30;;;;;;5096033;28;20535;-72
2022/06/10 08:10:45;;;;;;;5.40;1.30;;;22.50;70.40;;;;;;5095800;28;20464;-72
2022/06/10 08:13:13;;;;;;;3.77;1.77;;;22.40;70.30;;;;;;5095972;28;20447;-72
2022/06/10 08:15:41;;;;;;;7.10;1.70;;;22.50;71.40;;;;;;5095986;28;20455;-72
2022/06/10 08:18:09;;;;;;;5.13;1.30;;;22.50;71.30;;;;;;5095893;28;20475;-73
2022/06/10 08:23:26;;;;;;;5.60;1.47;;;22.20;70.10;;;;;;5098241;28;20403;-73
2022/06/10 08:25:54;;;;;;;4.53;1.90;;;21.90;72.60;;;;;;5099793;28;20458;-72
2022/06/10 08:28:21;;;;;;;3.70;1.27;;;21.60;72.40;;;;;;5097947;28;20452;-72
2022/06/10 08:30:48;;;;;;;8.20;1.70;;;21.50;74.70;;;;;;5095621;28;20861;-72
2022/06/10 08:33:16;;;;;;;7.87;1.93;;;21.30;76.20;;;;;;5095660;28;20505;-72
2022/06/10 08:35:43;;;;;;;3.93;1.40;;;21.10;76.60;;;;;;5095230;28;20455;-72
2022/06/10 08:38:12;;;;;;;8.70;1.57;;;20.90;78.00;;;;;;5094272;28;20460;-71
2022/06/10 08:40:50;;;;;;;11.67;1.60;;;20.90;78.80;;;;;;5095186;28;20965;-72
2022/06/10 08:43:30;;;;;;;8.40;1.97;;;20.80;79.10;;;;;;5095503;28;20435;-72
2022/06/10 08:46:07;;;;;;;12.90;2.30;;;20.80;78.60;;;;;;5095082;28;20779;-72
2022/06/10 08:48:42;;;;;;;4.70;1.30;;;20.80;78.60;;;;;;5095145;28;20446;-71
2022/06/10 08:51:17;;;;;;;6.13;1.67;;;20.80;78.80;;;;;;5095151;28;20471;-71
2022/06/10 08:54:06;;;;;;;4.77;1.40;;;20.90;78.70;;;;;;5095224;28;20431;-72
2022/06/10 08:56:40;;;;;;;4.80;1.13;;;21.00;78.50;;;;;;5095255;28;20431;-72
2022/06/10 08:59:16;;;;;;;4.83;1.50;;;21.20;78.30;;;;;;5095175;28;20477;-72
2022/06/10 09:01:50;;;;;;;5.13;1.57;;;21.30;77.50;;;;;;5094869;28;20463;-72
2022/06/10 09:04:29;;;;;;;7.37;1.83;;;21.30;76.10;;;;;;5095291;28;20448;-72
2022/06/10 09:07:00;;;;;;;5.03;1.73;;;21.40;76.10;;;;;;5094694;28;20428;-72
2022/06/10 09:09:30;;;;;;;8.67;1.67;;;21.50;76.50;;;;;;5094636;28;20905;-72
2022/06/10 09:12:05;;;;;;;7.70;1.37;;;21.70;76.50;;;;;;5094782;28;20470;-72
2022/06/10 09:14:32;;;;;;;3.63;1.50;;;21.80;75.20;;;;;;5095407;28;20432;-72
2022/06/10 09:17:04;;;;;;;6.33;1.70;;;21.90;74.00;;;;;;5094673;28;20458;-72
2022/06/10 09:19:42;;;;;;;6.93;2.00;;;22.00;73.90;;;;;;5094829;28;20435;-72
2022/06/10 09:22:15;;;;;;;7.77;1.60;;;22.10;73.60;;;;;;5094652;28;20474;-72
2022/06/10 09:24:45;;;;;;;5.07;1.43;;;22.20;73.60;;;;;;5094767;28;20428;-72
2022/06/10 09:27:21;;;;;;;5.60;1.60;;;22.30;73.10;;;;;;5094872;28;20440;-72
2022/06/10 09:29:48;;;;;;;3.90;1.60;;;22.30;73.10;;;;;;5095021;28;20427;-72
2022/06/10 09:32:23;;;;;;;2.13;1.20;;;22.20;72.80;;;;;;5094647;28;20817;-72
2022/06/10 09:35:02;;;;;;;5.30;1.50;;;22.30;73.80;;;;;;5094412;28;20466;-72
2022/06/10 09:37:39;;;;;;;3.03;1.20;;;22.40;72.70;;;;;;5094166;28;20991;-72
2022/06/10 09:43:20;;;;;;;5.10;1.47;;;22.60;71.20;;;;;;5094115;28;20438;-72
2022/06/10 09:45:54;;;;;;;6.77;1.90;;;22.80;70.60;;;;;;5093864;28;20876;-72
2022/06/10 09:48:33;;;;;;;4.17;1.37;;;23.00;70.60;;;;;;5094242;28;20432;-71
2022/06/10 09:51:06;;;;;;;6.47;1.00;;;23.10;69.40;;;;;;5093677;28;20995;-72
2022/06/10 09:53:46;;;;;;;4.73;1.57;;;23.30;68.00;;;;;;5093881;28;20801;-72
2022/06/10 09:56:33;;;;;;;4.70;1.60;;;23.50;68.40;;;;;;5093823;28;20940;-72
2022/06/10 09:59:17;;;;;;;6.20;1.80;;;23.80;68.60;;;;;;5094019;28;20475;-72
2022/06/10 10:01:55;;;;;;;5.73;1.60;;;24.10;64.90;;;;;;5094032;28;20463;-73
2022/06/10 10:04:43;;;;;;;3.50;1.50;;;24.40;64.60;;;;;;5094037;28;20461;-71
2022/06/10 10:07:17;;;;;;;3.50;1.07;;;24.60;62.50;;;;;;5080280;28;20475;-71
2022/06/10 10:09:53;;;;;;;4.30;1.50;;;24.90;61.10;;;;;;5093940;28;20436;-71
2022/06/10 10:12:29;;;;;;;6.67;1.60;;;25.00;59.80;;;;;;5093837;28;20561;-71
2022/06/10 10:15:09;;;;;;;3.40;1.13;;;25.10;59.30;;;;;;5093883;28;20438;-71
2022/06/10 10:17:51;;;;;;;5.87;1.80;;;25.20;59.30;;;;;;5093414;28;20471;-71
2022/06/10 10:20:24;;;;;;;3.13;1.33;;;25.40;58.80;;;;;;5093866;28;20439;-71
2022/06/10 10:23:14;;;;;;;2.97;1.50;;;25.60;57.90;;;;;;5093842;28;20461;-71
2022/06/10 10:25:44;;;;;;;6.03;1.50;;;25.80;57.40;;;;;;5088350;28;20463;-71
2022/06/10 10:28:17;;;;;;;2.83;1.10;;;25.90;56.90;;;;;;5093922;28;20432;-70
2022/06/10 10:30:52;;;;;;;5.93;1.70;;;26.10;56.30;;;;;;5093787;28;20467;-70
2022/06/10 10:33:18;;;;;;;3.27;1.60;;;26.30;54.60;;;;;;5093725;28;20424;-70
2022/06/10 10:35:48;;;;;;;5.47;1.60;;;26.40;54.90;;;;;;5093961;28;20443;-70
2022/06/10 10:38:29;;;;;;;9.40;1.87;;;26.50;54.30;;;;;;5093935;28;20575;-70
2022/06/10 10:40:57;;;;;;;3.80;1.40;;;26.80;53.60;;;;;;5093729;28;20463;-70
2022/06/10 10:43:28;;;;;;;4.83;1.10;;;27.00;54.10;;;;;;5093701;28;20463;-70
2022/06/10 10:46:00;;;;;;;11.10;1.63;;;27.00;52.30;;;;;;5093493;28;20435;-70
2022/06/10 10:48:30;;;;;;;5.03;1.67;;;27.10;52.50;;;;;;5094415;28;20428;-70
2022/06/10 10:51:02;;;;;;;5.37;1.47;;;27.20;52.30;;;;;;5093471;28;20816;-71
2022/06/10 10:53:35;;;;;;;5.67;1.57;;;27.30;52.10;;;;;;5093678;28;20428;-71
2022/06/10 10:56:04;;;;;;;2.27;1.40;;;27.40;51.30;;;;;;5093598;28;20424;-71
2022/06/10 10:58:34;;;;;;;5.13;1.50;;;27.60;51.00;;;;;;5094128;28;20475;-71
2022/06/10 11:01:05;;;;;;;3.73;1.63;;;27.70;51.10;;;;;;5096700;28;20474;-72
2022/06/10 11:03:35;;;;;;;3.90;1.20;;;27.80;50.80;;;;;;5100783;28;20986;-72
2022/06/10 11:06:04;;;;;;;3.80;1.50;;;28.10;51.10;;;;;;5098448;28;20438;-72
2022/06/10 11:08:33;;;;;;;5.77;2.07;;;28.60;50.40;;;;;;5096997;28;20451;-72
2022/06/10 11:11:06;;;;;;;4.80;1.13;;;29.40;48.00;;;;;;5096836;28;20464;-72
2022/06/10 11:13:37;;;;;;;7.73;2.13;;;30.10;45.40;;;;;;5097344;28;20447;-72
2022/06/10 11:16:41;;;;;;;2.43;1.40;;;30.30;45.30;;;;;;5096843;28;20932;-72
2022/06/10 11:19:17;;;;;;;6.53;1.90;;;30.10;43.30;;;;;;5097040;28;20463;-72
2022/06/10 11:21:54;;;;;;;5.90;1.73;;;29.90;44.00;;;;;;5096936;28;20459;-73
2022/06/10 11:24:26;;;;;;;5.73;1.73;;;29.90;44.60;;;;;;5097061;28;20522;-72
2022/06/10 11:26:55;;;;;;;5.83;1.90;;;30.00;44.30;;;;;;5097062;28;20477;-72
2022/06/10 11:29:23;;;;;;;4.50;1.60;;;30.00;43.80;;;;;;5096892;28;20440;-72
2022/06/10 11:31:56;;;;;;;8.00;1.60;;;29.80;43.30;;;;;;5096657;28;20503;-72
2022/06/10 11:34:29;;;;;;;6.10;1.70;;;29.80;44.80;;;;;;5096540;28;20462;-72
2022/06/10 11:36:56;;;;;;;5.97;1.43;;;29.90;45.00;;;;;;5096512;28;20795;-72
2022/06/10 11:39:27;;;;;;;4.67;1.80;;;30.20;43.60;;;;;;5096286;28;20479;-72
2022/06/10 11:42:07;;;;;;;5.73;1.50;;;30.40;42.20;;;;;;5096667;28;20471;-73
2022/06/10 11:44:40;;;;;;;8.70;1.83;;;30.80;42.80;;;;;;5096683;28;20442;-72
2022/06/10 11:47:15;;;;;;;3.47;1.80;;;31.20;41.60;;;;;;5096665;28;20439;-72
2022/06/10 11:49:49;;;;;;;7.53;2.00;;;31.20;40.00;;;;;;5096588;28;20427;-72
2022/06/10 11:52:25;;;;;;;6.20;1.87;;;31.20;41.40;;;;;;5096419;28;20536;-72
2022/06/10 11:55:00;;;;;;;4.47;1.80;;;30.90;40.10;;;;;;5096043;28;20905;-72
2022/06/10 12:00:23;;;;;;;5.47;1.93;;;30.80;43.30;;;;;;5096709;28;20477;-72
2022/06/10 12:03:01;;;;;;;5.73;1.53;;;30.70;41.50;;;;;;5096388;28;20440;-72
2022/06/10 12:05:38;;;;;;;3.50;1.40;;;30.80;43.00;;;;;;5096333;28;20427;-72
2022/06/10 12:08:14;;;;;;;5.13;1.50;;;30.60;42.40;;;;;;5096700;28;20438;-72
2022/06/10 12:10:48;;;;;;;4.43;1.67;;;30.90;41.90;;;;;;5095818;28;20861;-72
2022/06/10 12:13:16;;;;;;;4.37;1.40;;;31.20;41.00;;;;;;5095930;28;20419;-72
2022/06/10 12:15:50;;;;;;;5.10;1.53;;;31.60;40.90;;;;;;5096056;28;20440;-72
2022/06/10 12:18:18;;;;;;;4.73;1.50;;;31.70;38.80;;;;;;5095732;28;20980;-72
2022/06/10 12:20:48;;;;;;;5.13;1.63;;;31.70;39.30;;;;;;5095870;28;20471;-72
2022/06/10 12:23:20;;;;;;;4.03;1.70;;;31.70;40.00;;;;;;5095970;28;20459;-72
2022/06/10 12:25:54;;;;;;;4.70;1.57;;;31.70;40.00;;;;;;5095593;28;20428;-72
2022/06/10 12:28:28;;;;;;;4.17;1.33;;;31.50;39.70;;;;;;5095799;28;20430;-72
2022/06/10 12:31:02;;;;;;;6.57;1.60;;;31.50;39.60;;;;;;5095683;28;20463;-72
2022/06/10 12:33:39;;;;;;;4.50;1.17;;;31.40;38.90;;;;;;5095524;28;20458;-72
2022/06/10 12:36:13;;;;;;;2.50;1.70;;;31.40;39.30;;;;;;5095405;28;20845;-72
2022/06/10 12:38:42;;;;;;;2.63;1.20;;;31.50;38.90;;;;;;5095464;28;20477;-72
2022/06/10 12:41:14;;;;;;;2.43;1.30;;;31.60;39.50;;;;;;5096075;28;20467;-72
2022/06/10 12:43:45;;;;;;;5.33;1.60;;;32.20;38.70;;;;;;5095099;28;20932;-71
2022/06/10 12:46:33;;;;;;;6.07;1.60;;;32.90;37.60;;;;;;5095443;28;20431;-70
2022/06/10 12:49:07;;;;;;;5.13;1.80;;;33.20;36.80;;;;;;5095039;28;20428;-70
2022/06/10 12:51:40;;;;;;;3.53;1.60;;;33.00;35.30;;;;;;5095834;28;20463;-70
2022/06/10 12:54:20;;;;;;;5.90;1.80;;;32.80;37.50;;;;;;5095263;28;20431;-73
2022/06/10 12:56:47;;;;;;;4.70;1.80;;;32.50;38.60;;;;;;5095100;28;20428;-73
2022/06/10 12:59:24;;;;;;;4.00;1.90;;;32.30;38.10;;;;;;5094935;28;20471;-72
2022/06/10 13:01:52;;;;;;;5.47;1.83;;;32.00;39.40;;;;;;5094737;28;21040;-72
2022/06/10 13:04:52;;;;;;;4.87;1.67;;;31.40;38.90;;;;;;5094798;28;20439;-72
2022/06/10 13:07:36;;;;;;;4.30;1.33;;;30.90;40.70;;;;;;5094272;28;20448;-72
2022/06/10 13:10:42;;;;;;;3.63;1.53;;;30.50;41.70;;;;;;5094777;28;20454;-72
2022/06/10 13:13:17;;;;;;;5.53;2.03;;;30.10;42.80;;;;;;5093271;28;20458;-71
2022/06/10 13:15:44;;;;;;;7.90;2.00;;;29.60;44.00;;;;;;5094604;28;20438;-72
2022/06/10 13:18:27;;;;;;;5.07;2.40;;;29.20;44.60;;;;;;5094284;28;20464;-72
2022/06/10 13:20:54;;;;;;;6.30;1.60;;;29.30;44.80;;;;;;5094556;28;20467;-72
2022/06/10 13:23:23;;;;;;;3.23;1.43;;;30.10;42.50;;;;;;5094741;28;20466;-72
2022/06/10 13:26:12;;;;;;;4.00;1.60;;;30.40;41.00;;;;;;5094379;28;20454;-72